Terminal Aerodrome Forecast
Issued by NWS Dallas/Fort Worth, TX

Home | Current Version | Previous Version | Text Only | Print | Product List | Glossary On
Versions: 1 2 3 4 5 6 7 8 9 10 11 12 13 14 15 16 17 18 19 20 21 22 23 24 25 26 27 28 29
706
FTUS44 KFWD 241124
TAFDFW
TAF
KDFW 241124Z 2412/2518 17016KT P6SM -RA BKN060 BKN250
     FM241300 18016KT P6SM VCSH BKN050
      TEMPO 2414/2416 6SM -SHRA BKN030
     FM241600 21015G25KT P6SM BKN070 BKN100
     FM241800 21020G30KT P6SM FEW100
     FM250000 21016KT P6SM FEW100
     FM250300 29016KT P6SM FEW250=

USA.gov is the U.S. government's official web portal to all federal, state and local government web resources and services.